createdAt,value
2022-08-16T00:00:04.558Z,100752.81
2022-08-16T00:02:33.100Z,100758.84
2022-08-16T00:05:00.462Z,100762.75
2022-08-16T00:07:29.106Z,100762.97
2022-08-16T00:09:56.820Z,100765.09
2022-08-16T00:12:26.708Z,100764.28
2022-08-16T00:14:56.406Z,100767.34
2022-08-16T00:17:26.673Z,100769.78
2022-08-16T00:19:55.299Z,100767.16
2022-08-16T00:22:25.586Z,100771.84
2022-08-16T00:24:55.506Z,100775.63
2022-08-16T00:27:23.365Z,100778.13
2022-08-16T00:30:00.885Z,100776.31
2022-08-16T00:32:35.310Z,100776.66
2022-08-16T00:35:01.979Z,100776.13
2022-08-16T00:37:58.462Z,100778.75
2022-08-16T00:40:34.386Z,100784.25
2022-08-16T00:43:12.385Z,100771.91
2022-08-16T00:46:34.059Z,100781.88
2022-08-16T00:48:53.789Z,100787.38
2022-08-16T00:51:22.935Z,100785.94
2022-08-16T00:53:51.103Z,100781.56
2022-08-16T00:56:57.968Z,100784.91
2022-08-16T00:59:11.150Z,100785.53
2022-08-16T01:01:43.714Z,100781.56
2022-08-16T01:04:29.497Z,100789.03
2022-08-16T01:07:02.345Z,100785.22
2022-08-16T01:09:33.465Z,100775.44
2022-08-16T01:12:03.569Z,100781.03
2022-08-16T01:14:35.302Z,100783.81
2022-08-16T01:17:03.756Z,100786.69
2022-08-16T01:19:45.394Z,100778.16
2022-08-16T01:22:47.862Z,100783.47
2022-08-16T01:25:34.143Z,100783.84
2022-08-16T01:28:03.860Z,100781.66
2022-08-16T01:30:49.744Z,100789.44
2022-08-16T01:33:19.442Z,100787.97
2022-08-16T01:36:11.582Z,100786.84
2022-08-16T01:38:51.238Z,100784.34
2022-08-16T01:41:29.726Z,100784.25
2022-08-16T01:44:00.927Z,100784.84
2022-08-16T01:46:47.034Z,100785.97
2022-08-16T01:49:18.999Z,100776.63
2022-08-16T01:51:50.381Z,100779.97
2022-08-16T01:54:17.119Z,100788.94
2022-08-16T01:56:57.651Z,100780.44
2022-08-16T01:59:27.970Z,100781.00
2022-08-16T02:02:00.160Z,100771.00
2022-08-16T02:04:29.886Z,100777.84
2022-08-16T02:07:18.496Z,100776.19
2022-08-16T02:09:59.006Z,100776.28
2022-08-16T02:12:50.397Z,100779.09
2022-08-16T02:15:24.996Z,100778.34
2022-08-16T02:17:53.352Z,100779.47
2022-08-16T02:20:26.374Z,100782.00
2022-08-16T02:22:57.549Z,100787.66
2022-08-16T02:25:24.960Z,100784.34
2022-08-16T02:28:11.469Z,100787.22
2022-08-16T02:30:43.509Z,100786.50
2022-08-16T02:33:12.759Z,100789.47
2022-08-16T02:35:49.696Z,100787.41
2022-08-16T02:38:21.251Z,100784.94
2022-08-16T02:40:48.398Z,100785.09
2022-08-16T02:43:16.126Z,100790.22
2022-08-16T02:45:44.019Z,100789.66
2022-08-16T02:48:29.309Z,100788.09
2022-08-16T02:51:06.708Z,100791.03
2022-08-16T02:53:40.923Z,100785.75
2022-08-16T02:56:12.054Z,100779.47
2022-08-16T02:58:41.953Z,100780.75
2022-08-16T03:01:23.993Z,100785.13
2022-08-16T03:04:39.426Z,100780.09
2022-08-16T03:06:43.153Z,100780.19
2022-08-16T03:09:14.733Z,100780.19
2022-08-16T03:11:43.203Z,100781.13
2022-08-16T03:14:11.541Z,100786.59
2022-08-16T03:16:58.665Z,100782.34
2022-08-16T03:19:48.477Z,100781.41
2022-08-16T03:22:19.390Z,100776.34
2022-08-16T03:24:57.574Z,100769.66
2022-08-16T03:27:30.950Z,100775.13
2022-08-16T03:30:00.063Z,100774.09
2022-08-16T03:32:29.658Z,100769.94
2022-08-16T03:34:56.190Z,100773.75
2022-08-16T03:37:24.365Z,100768.84
2022-08-16T03:39:56.911Z,100766.53
2022-08-16T03:42:29.590Z,100777.25
2022-08-16T03:45:03.597Z,100777.50
2022-08-16T03:47:34.208Z,100784.09
2022-08-16T03:50:02.905Z,100777.34
2022-08-16T03:52:31.633Z,100775.31
2022-08-16T03:54:59.641Z,100784.91
2022-08-16T03:57:31.427Z,100782.16
2022-08-16T04:00:12.382Z,100780.19
2022-08-16T04:03:06.998Z,100795.53
2022-08-16T04:05:36.626Z,100800.50
2022-08-16T04:08:22.969Z,100802.03
2022-08-16T04:10:52.466Z,100811.47
2022-08-16T04:13:20.167Z,100801.78
2022-08-16T04:15:48.045Z,100805.47
2022-08-16T04:18:19.731Z,100805.47
2022-08-16T04:20:46.181Z,100804.63
2022-08-16T04:23:13.439Z,100809.72
2022-08-16T04:25:40.579Z,100817.66
2022-08-16T04:28:29.166Z,100814.97
2022-08-16T04:30:55.361Z,100813.31
2022-08-16T04:33:27.311Z,100817.19
2022-08-16T04:35:57.872Z,100810.41
2022-08-16T04:38:25.564Z,100815.50
2022-08-16T04:40:52.325Z,100823.13
2022-08-16T04:43:20.961Z,100822.16
2022-08-16T04:46:00.378Z,100828.09
2022-08-16T04:48:32.467Z,100830.59
2022-08-16T04:51:00.874Z,100841.53
2022-08-16T04:53:28.819Z,100836.06
2022-08-16T04:55:55.866Z,100834.81
2022-08-16T04:58:38.351Z,100835.63
2022-08-16T05:01:09.077Z,100842.13
2022-08-16T05:03:35.887Z,100834.94
2022-08-16T05:06:09.397Z,100840.69
2022-08-16T05:08:36.397Z,100844.66
2022-08-16T05:11:08.461Z,100840.88
2022-08-16T05:13:40.311Z,100843.00
2022-08-16T05:16:11.790Z,100845.97
2022-08-16T05:18:38.643Z,100849.78
2022-08-16T05:21:11.105Z,100839.13
2022-08-16T05:23:39.611Z,100843.19
2022-08-16T05:26:06.552Z,100843.84
2022-08-16T05:28:47.157Z,100844.44
2022-08-16T05:31:21.916Z,100848.84
2022-08-16T05:33:53.427Z,100849.69
2022-08-16T05:36:21.881Z,100846.44
2022-08-16T05:38:49.167Z,100841.69
2022-08-16T05:41:17.022Z,100838.09
2022-08-16T05:43:46.962Z,100841.31
2022-08-16T05:46:28.855Z,100848.78
2022-08-16T05:49:08.667Z,100846.53
2022-08-16T05:51:38.475Z,100846.81
2022-08-16T05:54:07.698Z,100847.78
2022-08-16T05:56:37.550Z,100844.72
2022-08-16T05:59:06.375Z,100851.28
2022-08-16T06:01:38.090Z,100851.94
2022-08-16T06:04:13.672Z,100854.31
2022-08-16T06:06:57.724Z,100857.97
2022-08-16T06:09:37.144Z,100857.47
2022-08-16T06:12:12.725Z,100862.88
2022-08-16T06:14:57.211Z,100863.94
2022-08-16T06:17:43.185Z,100859.88
2022-08-16T06:20:14.459Z,100856.59
2022-08-16T06:22:40.948Z,100865.50
2022-08-16T06:25:13.005Z,100861.16
2022-08-16T06:27:41.809Z,100867.41
2022-08-16T06:30:23.856Z,100861.47
2022-08-16T06:32:55.699Z,100859.88
2022-08-16T06:35:47.320Z,100865.25
2022-08-16T06:38:22.192Z,100869.63
2022-08-16T06:41:00.454Z,100876.78
2022-08-16T06:43:28.985Z,100870.69
2022-08-16T06:46:00.621Z,100869.53
2022-08-16T06:48:32.932Z,100863.88
2022-08-16T06:51:04.715Z,100865.63
2022-08-16T06:53:34.834Z,100861.53
2022-08-16T06:56:05.796Z,100865.13
2022-08-16T06:58:33.733Z,100872.59
2022-08-16T07:01:04.226Z,100872.03
2022-08-16T07:03:55.526Z,100869.91
2022-08-16T07:06:26.693Z,100875.63
2022-08-16T07:08:55.456Z,100869.72
2022-08-16T07:11:46.149Z,100871.75
2022-08-16T07:14:25.548Z,100880.56
2022-08-16T07:17:00.310Z,100883.19
2022-08-16T07:20:01.355Z,100881.81
2022-08-16T07:22:39.093Z,100881.66
2022-08-16T07:25:08.432Z,100885.13
2022-08-16T07:27:37.038Z,100888.56
2022-08-16T07:30:38.491Z,100891.16
2022-08-16T07:32:55.467Z,100883.94
2022-08-16T07:35:22.641Z,100884.50
2022-08-16T07:37:49.703Z,100885.72
2022-08-16T07:40:16.701Z,100881.19
2022-08-16T07:42:43.281Z,100882.03
2022-08-16T07:45:11.911Z,100894.00
2022-08-16T07:47:38.856Z,100896.09
2022-08-16T07:50:09.616Z,100906.63
2022-08-16T07:52:56.002Z,100916.69
2022-08-16T07:55:22.490Z,100908.91
2022-08-16T07:58:00.809Z,100915.19
2022-08-16T08:00:29.563Z,100915.28
2022-08-16T08:02:57.497Z,100924.59
2022-08-16T08:05:29.725Z,100922.13
2022-08-16T08:08:03.123Z,100921.59
2022-08-16T08:10:38.853Z,100922.63
2022-08-16T08:13:05.483Z,100924.22
2022-08-16T08:15:35.314Z,100918.00
2022-08-16T08:18:29.942Z,100921.13
2022-08-16T08:20:59.295Z,100917.19
2022-08-16T08:23:27.506Z,100920.66
2022-08-16T08:25:55.798Z,100927.97
2022-08-16T08:28:22.818Z,100916.72
2022-08-16T08:30:57.387Z,100926.69
2022-08-16T08:33:27.710Z,100926.59
2022-08-16T08:35:57.778Z,100934.31
2022-08-16T08:38:43.737Z,100934.22
2022-08-16T08:41:11.997Z,100940.28
2022-08-16T08:43:41.604Z,100942.78
2022-08-16T08:46:18.253Z,100948.72
2022-08-16T08:48:59.100Z,100946.94
2022-08-16T08:51:27.611Z,100944.16
2022-08-16T08:53:58.779Z,100938.66
2022-08-16T08:56:25.857Z,100936.72
2022-08-16T08:58:59.960Z,100947.75
2022-08-16T09:01:36.401Z,100945.00
2022-08-16T09:04:05.305Z,100941.00
2022-08-16T09:06:44.372Z,100935.78
2022-08-16T09:09:16.922Z,100931.59
2022-08-16T09:11:47.247Z,100936.59
2022-08-16T09:14:23.868Z,100950.63
2022-08-16T09:17:02.308Z,100946.59
2022-08-16T09:19:34.013Z,100947.84
2022-08-16T09:22:01.499Z,100960.56
2022-08-16T09:24:47.118Z,100955.03
2022-08-16T09:27:56.704Z,100968.22
2022-08-16T09:30:33.245Z,100963.06
2022-08-16T09:33:02.780Z,100958.44
2022-08-16T09:36:01.257Z,100961.00
2022-08-16T09:38:31.131Z,100962.75
2022-08-16T09:41:01.129Z,100966.69
2022-08-16T09:43:58.591Z,100964.03
2022-08-16T09:46:45.750Z,100964.06
2022-08-16T09:49:19.818Z,100969.13
2022-08-16T09:51:49.635Z,100954.88
2022-08-16T09:54:20.913Z,100970.19
2022-08-16T09:56:53.221Z,100974.38
2022-08-16T09:59:30.727Z,100974.56
2022-08-16T10:01:57.813Z,100970.31
2022-08-16T10:04:31.699Z,100973.91
2022-08-16T10:07:15.238Z,100971.31
2022-08-16T10:09:44.897Z,100975.00
2022-08-16T10:12:31.123Z,100973.81
2022-08-16T10:14:57.676Z,100970.22
2022-08-16T10:17:27.852Z,100977.41
2022-08-16T10:19:55.330Z,100969.38
2022-08-16T10:22:23.267Z,100975.41
2022-08-16T10:24:55.636Z,100972.19
2022-08-16T10:27:45.762Z,100980.16
2022-08-16T10:30:26.259Z,100967.69
2022-08-16T10:32:56.273Z,100968.13
2022-08-16T10:35:23.932Z,100968.94
2022-08-16T10:38:02.529Z,100960.56
2022-08-16T10:40:33.537Z,100969.16
2022-08-16T10:43:00.549Z,100977.06
2022-08-16T10:45:36.973Z,100977.88
2022-08-16T10:48:06.382Z,100973.72
2022-08-16T10:50:52.860Z,100975.06
2022-08-16T10:53:19.322Z,100981.66
2022-08-16T10:56:55.905Z,100975.72
2022-08-16T11:07:51.675Z,100985.81
2022-08-16T11:10:20.426Z,100996.16
2022-08-16T11:12:47.967Z,100986.44
2022-08-16T11:15:20.292Z,100994.56
2022-08-16T11:18:21.546Z,100995.88
2022-08-16T11:20:41.530Z,101000.13
2022-08-16T11:23:09.437Z,100999.09
2022-08-16T11:31:14.545Z,101007.66
2022-08-16T11:33:57.861Z,101008.38
2022-08-16T11:36:33.950Z,101008.78
2022-08-16T11:39:00.904Z,101009.75
2022-08-16T11:41:29.288Z,101014.72
2022-08-16T11:43:57.392Z,101009.59
2022-08-16T11:46:43.255Z,101012.91
2022-08-16T11:49:13.885Z,101017.22
2022-08-16T11:51:43.986Z,101027.06
2022-08-16T11:54:21.537Z,101029.06
2022-08-16T11:57:00.634Z,101019.94
2022-08-16T11:59:30.592Z,101018.09
2022-08-16T12:02:30.575Z,101017.25
2022-08-16T12:04:46.045Z,101020.09
2022-08-16T12:07:18.852Z,101023.41
2022-08-16T12:09:47.689Z,101031.66
2022-08-16T12:12:15.232Z,101028.53
2022-08-16T12:14:45.064Z,101017.28
2022-08-16T12:17:13.321Z,101017.75
2022-08-16T12:19:41.313Z,101022.31
2022-08-16T12:22:18.889Z,101018.56
2022-08-16T12:24:47.929Z,101019.53
2022-08-16T12:27:23.164Z,101016.03
2022-08-16T12:29:51.450Z,101019.59
2022-08-16T12:32:35.818Z,101015.81
2022-08-16T12:35:07.403Z,101015.84
2022-08-16T12:37:34.213Z,101023.03
2022-08-16T12:40:01.756Z,101028.47
2022-08-16T12:42:34.518Z,101030.31
2022-08-16T12:45:09.297Z,101038.50
2022-08-16T12:48:05.113Z,101041.91
2022-08-16T12:50:41.165Z,101038.38
2022-08-16T12:53:07.828Z,101052.53
2022-08-16T12:55:41.955Z,101059.47
2022-08-16T12:58:14.055Z,101057.78
2022-08-16T13:00:59.824Z,101059.00
2022-08-16T13:03:28.860Z,101063.59
2022-08-16T13:05:59.253Z,101060.16
2022-08-16T13:08:27.482Z,101063.81
2022-08-16T13:10:58.853Z,101061.78
2022-08-16T13:13:25.878Z,101059.41
2022-08-16T13:16:03.451Z,101066.16
2022-08-16T13:18:34.096Z,101066.94
2022-08-16T13:21:03.615Z,101064.28
2022-08-16T13:23:31.039Z,101057.44
2022-08-16T13:25:57.934Z,101055.31
2022-08-16T13:28:26.640Z,101049.09
2022-08-16T13:30:56.251Z,101048.28
2022-08-16T13:33:30.001Z,101046.38
2022-08-16T13:35:59.502Z,101044.16
2022-08-16T13:38:32.647Z,101037.88
2022-08-16T13:41:09.592Z,101031.78
2022-08-16T13:43:37.952Z,101031.16
2022-08-16T13:46:06.657Z,101033.16
2022-08-16T13:48:42.908Z,101030.31
2022-08-16T13:51:17.032Z,101035.88
2022-08-16T13:53:58.212Z,101029.66
2022-08-16T13:56:36.036Z,101030.06
2022-08-16T13:59:19.972Z,101035.88
2022-08-16T14:01:54.511Z,101038.84
2022-08-16T14:04:27.652Z,101037.81
2022-08-16T14:06:56.749Z,101037.59
2022-08-16T14:09:24.124Z,101042.00
2022-08-16T14:11:53.301Z,101043.97
2022-08-16T14:14:28.260Z,101052.22
2022-08-16T14:17:01.120Z,101043.88
2022-08-16T14:19:29.719Z,101048.66
2022-08-16T14:22:14.674Z,101051.41
2022-08-16T14:24:46.792Z,101056.38
2022-08-16T14:27:15.599Z,101050.66
2022-08-16T14:29:42.396Z,101054.50
2022-08-16T14:32:09.343Z,101061.50
2022-08-16T14:34:40.309Z,101065.34
2022-08-16T14:37:07.470Z,101069.94
2022-08-16T14:39:34.868Z,101071.03
2022-08-16T14:42:15.987Z,101068.53
2022-08-16T14:44:42.925Z,101077.31
2022-08-16T14:47:10.001Z,101071.09
2022-08-16T14:49:40.497Z,101073.66
2022-08-16T14:52:20.478Z,101063.88
2022-08-16T14:55:04.946Z,101066.91
2022-08-16T14:57:31.803Z,101064.66
2022-08-16T15:00:05.765Z,101054.34
2022-08-16T15:02:34.459Z,101060.22
2022-08-16T15:05:04.309Z,101062.31
2022-08-16T15:07:35.245Z,101063.03
2022-08-16T15:10:03.449Z,101059.66
2022-08-16T15:12:33.840Z,101061.25
2022-08-16T15:15:12.691Z,101055.25
2022-08-16T15:17:53.904Z,101058.25
2022-08-16T15:20:22.745Z,101058.63
2022-08-16T15:22:52.715Z,101067.53
2022-08-16T15:25:30.292Z,101068.44
2022-08-16T15:28:00.193Z,101074.44
2022-08-16T15:30:56.739Z,101071.63
2022-08-16T15:33:19.849Z,101055.75
2022-08-16T15:35:50.219Z,101058.69
2022-08-16T15:38:57.830Z,101062.69
2022-08-16T15:41:04.836Z,101073.47
2022-08-16T15:43:38.935Z,101066.16
2022-08-16T15:46:53.982Z,101070.81
2022-08-16T15:49:15.606Z,101069.44
2022-08-16T15:51:45.336Z,101078.03
2022-08-16T15:54:29.008Z,101072.66
2022-08-16T15:57:11.011Z,101069.59
2022-08-16T15:59:48.644Z,101082.03
2022-08-16T16:02:29.504Z,101086.03
2022-08-16T16:04:58.180Z,101088.44
2022-08-16T16:07:30.226Z,101080.03
2022-08-16T16:09:58.787Z,101086.81
2022-08-16T16:15:18.382Z,101086.66
2022-08-16T16:17:50.681Z,101079.84
2022-08-16T16:20:18.910Z,101086.78
2022-08-16T16:22:46.299Z,101077.69
2022-08-16T16:25:15.824Z,101086.63
2022-08-16T16:27:43.845Z,101093.56
2022-08-16T16:30:44.233Z,101088.59
2022-08-16T16:32:59.410Z,101088.13
2022-08-16T16:35:32.547Z,101088.56
2022-08-16T16:38:00.123Z,101082.47
2022-08-16T16:40:32.810Z,101084.81
2022-08-16T16:43:00.899Z,101083.97
2022-08-16T16:45:38.097Z,101087.34
2022-08-16T16:48:12.050Z,101092.22
2022-08-16T16:50:39.428Z,101088.69
2022-08-16T16:53:17.363Z,101091.22
2022-08-16T16:55:52.978Z,101094.44
2022-08-16T16:58:43.506Z,101088.13
2022-08-16T17:01:20.963Z,101087.09
2022-08-16T17:04:04.478Z,101091.44
2022-08-16T17:07:17.207Z,101092.22
2022-08-16T17:09:46.844Z,101092.78
2022-08-16T17:15:00.270Z,101095.50
2022-08-16T17:17:59.331Z,101092.66
2022-08-16T17:20:18.529Z,101088.84
2022-08-16T17:22:45.095Z,101088.69
2022-08-16T17:25:25.318Z,101081.44
2022-08-16T17:27:52.076Z,101083.59
2022-08-16T17:30:21.525Z,101088.34
2022-08-16T17:33:04.576Z,101091.00
2022-08-16T17:35:55.481Z,101080.59
2022-08-16T17:38:38.546Z,101094.22
2022-08-16T17:39:26.138Z,101088.19
2022-08-16T17:41:11.607Z,101085.81
2022-08-16T17:43:43.839Z,101083.78
2022-08-16T17:46:50.715Z,101091.31
2022-08-16T17:48:57.377Z,101092.22
2022-08-16T17:51:26.036Z,101084.44
2022-08-16T17:53:52.539Z,101094.88
2022-08-16T17:56:21.653Z,101102.69
2022-08-16T17:58:48.149Z,101095.50
2022-08-16T18:01:14.803Z,101085.50
2022-08-16T18:04:08.869Z,101085.94
2022-08-16T18:07:06.967Z,101098.09
2022-08-16T18:09:33.434Z,101093.72
2022-08-16T18:12:44.946Z,101100.50
2022-08-16T18:15:03.648Z,101105.00
2022-08-16T18:17:53.494Z,101109.75
2022-08-16T18:20:41.662Z,101116.53
2022-08-16T18:23:18.413Z,101123.66
2022-08-16T18:26:04.092Z,101126.50
2022-08-16T18:28:32.720Z,101121.28
2022-08-16T18:31:01.106Z,101114.56
2022-08-16T18:33:30.514Z,101117.91
2022-08-16T18:36:20.071Z,101112.28
2022-08-16T18:38:48.831Z,101126.03
2022-08-16T18:41:15.364Z,101113.75
2022-08-16T18:44:23.717Z,101111.81
2022-08-16T18:46:29.698Z,101119.72
2022-08-16T18:48:56.167Z,101117.53
2022-08-16T18:51:25.276Z,101121.81
2022-08-16T18:53:52.231Z,101127.59
2022-08-16T18:56:23.898Z,101143.06
2022-08-16T18:59:10.326Z,101133.53
2022-08-16T19:01:37.050Z,101128.44
2022-08-16T19:04:03.911Z,101136.16
2022-08-16T19:07:13.547Z,101141.66
2022-08-16T19:09:40.494Z,101140.56
2022-08-16T19:12:07.544Z,101143.16
2022-08-16T19:14:34.101Z,101151.59
2022-08-16T19:17:05.437Z,101149.75
2022-08-16T19:19:31.961Z,101157.16
2022-08-16T19:21:58.546Z,101160.03
2022-08-16T19:24:29.250Z,101167.75
2022-08-16T19:27:01.795Z,101171.72
2022-08-16T19:29:29.175Z,101168.94
2022-08-16T19:31:58.573Z,101176.50
2022-08-16T19:34:25.414Z,101181.31
2022-08-16T19:37:15.016Z,101181.00
2022-08-16T19:39:41.769Z,101181.63
2022-08-16T19:42:18.172Z,101182.50
2022-08-16T19:44:46.508Z,101181.94
2022-08-16T19:47:31.808Z,101189.91
2022-08-16T19:49:58.873Z,101194.56
2022-08-16T19:52:29.576Z,101205.31
2022-08-16T19:55:02.345Z,101205.69
2022-08-16T19:57:35.877Z,101207.84
2022-08-16T20:00:11.178Z,101206.31
2022-08-16T20:02:47.869Z,101218.84
2022-08-16T20:05:17.623Z,101227.19
2022-08-16T20:07:46.541Z,101224.13
2022-08-16T20:10:14.539Z,101232.22
2022-08-16T20:12:41.100Z,101230.81
2022-08-16T20:15:12.628Z,101222.50
2022-08-16T20:17:39.623Z,101220.13
2022-08-16T20:20:06.614Z,101229.16
2022-08-16T20:22:54.434Z,101225.88
2022-08-16T20:25:28.459Z,101229.69
2022-08-16T20:27:59.003Z,101238.63
2022-08-16T20:30:28.587Z,101240.94
2022-08-16T20:32:56.067Z,101247.50
2022-08-16T20:35:25.860Z,101240.88
2022-08-16T20:37:52.541Z,101242.75
2022-08-16T20:40:34.109Z,101234.91
2022-08-16T20:43:09.918Z,101234.09
2022-08-16T20:45:43.896Z,101229.13
2022-08-16T20:48:10.704Z,101230.31
2022-08-16T20:50:37.885Z,101230.53
2022-08-16T20:53:05.051Z,101225.44
2022-08-16T20:56:06.302Z,101232.69
2022-08-16T20:58:33.256Z,101233.75
2022-08-16T21:01:00.221Z,101236.38
2022-08-16T21:03:27.073Z,101246.13
2022-08-16T21:05:57.866Z,101242.91
2022-08-16T21:08:50.011Z,101247.53
2022-08-16T21:11:11.612Z,101248.59
2022-08-16T21:13:42.625Z,101240.41
2022-08-16T21:16:29.786Z,101245.75
2022-08-16T21:18:56.441Z,101243.28
2022-08-16T21:21:23.250Z,101242.56
2022-08-16T21:23:58.606Z,101248.03
2022-08-16T21:26:27.567Z,101248.50
2022-08-16T21:28:55.474Z,101255.50
2022-08-16T21:31:22.890Z,101265.25
2022-08-16T21:33:55.740Z,101258.78
2022-08-16T21:36:42.006Z,101251.53
2022-08-16T21:39:08.551Z,101252.72
2022-08-16T21:41:38.424Z,101259.25
2022-08-16T21:44:05.351Z,101254.34
2022-08-16T21:47:01.974Z,101263.38
2022-08-16T21:49:31.396Z,101258.72
2022-08-16T21:51:57.924Z,101255.03
2022-08-16T21:54:25.601Z,101252.63
2022-08-16T22:00:33.931Z,101252.38
2022-08-16T22:03:04.602Z,101258.28
2022-08-16T22:05:32.939Z,101260.19
2022-08-16T22:08:01.467Z,101252.34
2022-08-16T22:11:06.189Z,101254.34
2022-08-16T22:13:20.651Z,101264.16
2022-08-16T22:15:53.679Z,101258.34
2022-08-16T22:18:21.369Z,101251.53
2022-08-16T22:20:49.076Z,101254.13
2022-08-16T22:23:17.251Z,101250.59
2022-08-16T22:25:54.911Z,101256.97
2022-08-16T22:28:23.171Z,101261.59
2022-08-16T22:30:50.507Z,101253.25
2022-08-16T22:33:24.470Z,101263.09
2022-08-16T22:35:52.854Z,101258.81
2022-08-16T22:38:54.455Z,101259.63
2022-08-16T22:41:15.320Z,101250.25
2022-08-16T22:43:44.936Z,101249.56
2022-08-16T22:46:11.592Z,101249.66
2022-08-16T22:48:41.351Z,101250.09
2022-08-16T22:51:09.493Z,101252.81
2022-08-16T22:53:37.384Z,101238.22
2022-08-16T22:56:04.562Z,101240.09
2022-08-16T22:58:36.890Z,101235.22
2022-08-16T23:01:06.007Z,101241.50
2022-08-16T23:03:33.131Z,101237.31
2022-08-16T23:06:00.825Z,101247.03
2022-08-16T23:08:39.624Z,101237.75
2022-08-16T23:11:14.304Z,101239.66
2022-08-16T23:13:52.489Z,101235.38
2022-08-16T23:16:24.944Z,101245.81
2022-08-16T23:19:00.076Z,101246.75
2022-08-16T23:21:26.676Z,101239.03
2022-08-16T23:23:55.262Z,101238.28
2022-08-16T23:26:36.376Z,101237.91
2022-08-16T23:29:12.144Z,101230.41
2022-08-16T23:31:49.249Z,101225.19
2022-08-16T23:34:16.082Z,101225.19
2022-08-16T23:36:42.639Z,101224.06
2022-08-16T23:39:09.178Z,101226.34
2022-08-16T23:41:35.750Z,101225.84
2022-08-16T23:44:02.389Z,101226.06
2022-08-16T23:46:49.733Z,101228.44
2022-08-16T23:49:58.988Z,101225.00
2022-08-16T23:52:08.148Z,101235.53
2022-08-16T23:54:36.000Z,101236.59
2022-08-16T23:57:04.255Z,101233.97
2022-08-16T23:59:36.737Z,101227.41
